Ava Foss — WDF5779 — position and weather

sailwx.info

Track history (hours):
 
Tides and Currents Weather Stations Pressure Air Temp Water Temp Dewpoint Dewpoint Depression Visibility Wind Speed Wind Dir Waves Ship Positions

Ava Foss

Owner: Foss Maritime Company, Seattle, WA. More information available from US FCC via Universal Licensing System and Coast Guard Vessel Documentation Center.

Last reported at 2017-Sep-10 19:39 UTC. Time now 2017-Sep-24 21:29 UTC.
Position N 33°54' W 118°27'.
Warning: this ship's position is 14 days out of date.

Length 10 m; draft 2.5 m.

Type: Passenger vessel. MMSI: 367467120.

Date/timePositionNaut miles runAvg speedWind from/ knotsBaromVisibWave heightAir tempDewpointWater temp
2017-Sep-10 19:39N 33°54' W 118°27'0 0.3
2017-Sep-10 19:29N 33°54' W 118°27'0 0.0
2017-Sep-10 09:45N 33°54' W 118°27'0 0.7
2017-Sep-10 09:30N 33°54' W 118°27'0 0.4
2017-Sep-10 09:00N 33°54' W 118°27'0 0.0
2017-Sep-10 08:30N 33°54' W 118°27'0 0.0
2017-Sep-10 08:00N 33°54' W 118°27'0 0.0
2017-Sep-10 07:30N 33°54' W 118°27'3 6.9
2017-Sep-10 07:00N 33°51' W 118°25'1 0.2
2017-Sep-09 23:05N 33°51' W 118°24'0 0.0
2017-Sep-09 22:59N 33°51' W 118°24'0 0.0
2017-Sep-09 06:03N 33°51' W 118°24'0 1.4
2017-Sep-09 05:57N 33°51' W 118°24'0 0.0
2017-Sep-09 05:30N 33°51' W 118°24'0 0.0
2017-Sep-09 05:01N 33°51' W 118°24'0 0.0
2017-Sep-09 04:30N 33°51' W 118°24'0 0.0
2017-Sep-09 03:08N 33°51' W 118°24'5 2.9
2017-Sep-09 01:27N 33°54' W 118°27'0 0.1
2017-Sep-09 00:59N 33°54' W 118°27'0 0.0
2017-Sep-09 00:30N 33°54' W 118°27'5 9.1
2017-Sep-08 23:57N 33°51' W 118°24'0 0.0
2017-Sep-08 23:29N 33°51' W 118°24'4 2.3
2017-Sep-08 21:52N 33°53' W 118°27'1 2.0
2017-Sep-08 21:30N 33°53' W 118°28'4 8.2
2017-Sep-08 20:58N 33°51' W 118°24'0 0.0
2017-Sep-08 20:15N 33°51' W 118°24'5 7.6
2017-Sep-08 19:35N 33°53' W 118°29'1 2.9
2017-Sep-08 19:23N 33°53' W 118°28'2 0.9
2017-Sep-08 17:29N 33°54' W 118°29'6 3.7
2017-Sep-08 15:52N 33°51' W 118°24'615.1
2017-Sep-08 15:28N 33°54' W 118°29'0 0.0
2017-Sep-07 15:59N 33°54' W 118°29'1 0.4
2017-Sep-07 14:25N 33°54' W 118°29'  
2017-Sep-02 13:48N 33°53' W 118°29'515.7
2017-Sep-02 13:30N 33°51' W 118°24'5 0.6
2017-Sep-02 04:53N 33°55' W 118°27'0 0.5
2017-Sep-02 04:27N 33°55' W 118°27'1 0.0
2017-Sep-01 05:40N 33°54' W 118°27'  
Track history (hours):
 
Tides and Currents Weather Stations Pressure Air Temp Water Temp Dewpoint Dewpoint Depression Visibility Wind Speed Wind Dir Waves Ship Positions

Ava Foss

Owner: Foss Maritime Company, Seattle, WA. More information available from US FCC via Universal Licensing System and Coast Guard Vessel Documentation Center.

Last reported at 2017-Sep-10 19:39 UTC. Time now 2017-Sep-24 21:29 UTC.
Position N 33°54' W 118°27'.
Warning: this ship's position is 14 days out of date.

Length 10 m; draft 2.5 m.

Type: Passenger vessel. MMSI: 367467120.

Date/timePositionNaut miles runAvg speedWind from/ knotsBaromVisibWave heightAir tempDewpointWater temp
2017-Sep-10 19:39N 33°54' W 118°27'0 0.3
2017-Sep-10 19:29N 33°54' W 118°27'0 0.0
2017-Sep-10 09:45N 33°54' W 118°27'0 0.7
2017-Sep-10 09:30N 33°54' W 118°27'0 0.4
2017-Sep-10 09:00N 33°54' W 118°27'0 0.0
2017-Sep-10 08:30N 33°54' W 118°27'0 0.0
2017-Sep-10 08:00N 33°54' W 118°27'0 0.0
2017-Sep-10 07:30N 33°54' W 118°27'3 6.9
2017-Sep-10 07:00N 33°51' W 118°25'1 0.2
2017-Sep-09 23:05N 33°51' W 118°24'0 0.0
2017-Sep-09 22:59N 33°51' W 118°24'0 0.0
2017-Sep-09 06:03N 33°51' W 118°24'0 1.4
2017-Sep-09 05:57N 33°51' W 118°24'0 0.0
2017-Sep-09 05:30N 33°51' W 118°24'0 0.0
2017-Sep-09 05:01N 33°51' W 118°24'0 0.0
2017-Sep-09 04:30N 33°51' W 118°24'0 0.0
2017-Sep-09 03:08N 33°51' W 118°24'5 2.9
2017-Sep-09 01:27N 33°54' W 118°27'0 0.1
2017-Sep-09 00:59N 33°54' W 118°27'0 0.0
2017-Sep-09 00:30N 33°54' W 118°27'5 9.1
2017-Sep-08 23:57N 33°51' W 118°24'0 0.0
2017-Sep-08 23:29N 33°51' W 118°24'4 2.3
2017-Sep-08 21:52N 33°53' W 118°27'1 2.0
2017-Sep-08 21:30N 33°53' W 118°28'4 8.2
2017-Sep-08 20:58N 33°51' W 118°24'0 0.0
2017-Sep-08 20:15N 33°51' W 118°24'5 7.6
2017-Sep-08 19:35N 33°53' W 118°29'1 2.9
2017-Sep-08 19:23N 33°53' W 118°28'2 0.9
2017-Sep-08 17:29N 33°54' W 118°29'6 3.7
2017-Sep-08 15:52N 33°51' W 118°24'615.1
2017-Sep-08 15:28N 33°54' W 118°29'0 0.0
2017-Sep-07 15:59N 33°54' W 118°29'1 0.4
2017-Sep-07 14:25N 33°54' W 118°29'  
2017-Sep-02 13:48N 33°53' W 118°29'515.7
2017-Sep-02 13:30N 33°51' W 118°24'5 0.6
2017-Sep-02 04:53N 33°55' W 118°27'0 0.5
2017-Sep-02 04:27N 33°55' W 118°27'1 0.0
2017-Sep-01 05:40N 33°54' W 118°27'  

Dump ship's entire track history